sensor_id;sensor_type;location;lat;lon;timestamp;pressure;altitude;pressure_sealevel;temperature;humidity
73600;BME280;61877;48.246;9.220;2022-09-09T00:01:29;93935.09;;;9.24;86.94
73600;BME280;61877;48.246;9.220;2022-09-09T00:04:00;93938.31;;;9.17;87.59
73600;BME280;61877;48.246;9.220;2022-09-09T00:06:30;93939.03;;;9.26;86.99
73600;BME280;61877;48.246;9.220;2022-09-09T00:09:01;93941.56;;;9.23;86.99
73600;BME280;61877;48.246;9.220;2022-09-09T00:11:36;93943.56;;;9.13;87.03
73600;BME280;61877;48.246;9.220;2022-09-09T00:14:12;93936.84;;;9.07;87.30
73600;BME280;61877;48.246;9.220;2022-09-09T00:16:41;93936.72;;;9.04;87.50
73600;BME280;61877;48.246;9.220;2022-09-09T00:19:15;93932.50;;;9.03;87.23
73600;BME280;61877;48.246;9.220;2022-09-09T00:21:49;93932.41;;;9.11;86.95
73600;BME280;61877;48.246;9.220;2022-09-09T00:24:22;93930.72;;;9.07;87.01
73600;BME280;61877;48.246;9.220;2022-09-09T00:26:55;93937.06;;;9.02;87.65
73600;BME280;61877;48.246;9.220;2022-09-09T00:29:31;93936.59;;;9.00;87.72
73600;BME280;61877;48.246;9.220;2022-09-09T00:32:04;93931.91;;;8.97;87.74
73600;BME280;61877;48.246;9.220;2022-09-09T00:34:33;93940.63;;;8.94;87.61
73600;BME280;61877;48.246;9.220;2022-09-09T00:36:59;93934.84;;;9.04;86.92
73600;BME280;61877;48.246;9.220;2022-09-09T00:39:31;93931.38;;;9.04;87.27
73600;BME280;61877;48.246;9.220;2022-09-09T00:42:10;93939.75;;;9.02;87.08
73600;BME280;61877;48.246;9.220;2022-09-09T00:44:38;93927.38;;;8.98;87.14
73600;BME280;61877;48.246;9.220;2022-09-09T00:47:21;93925.69;;;8.93;86.86
73600;BME280;61877;48.246;9.220;2022-09-09T00:49:59;93924.09;;;8.92;87.24
73600;BME280;61877;48.246;9.220;2022-09-09T00:52:34;93925.75;;;8.85;87.75
73600;BME280;61877;48.246;9.220;2022-09-09T00:55:06;93932.34;;;8.87;87.12
73600;BME280;61877;48.246;9.220;2022-09-09T00:57:35;93939.81;;;8.82;87.26
73600;BME280;61877;48.246;9.220;2022-09-09T01:00:18;93936.53;;;8.76;87.37
73600;BME280;61877;48.246;9.220;2022-09-09T01:02:56;93929.75;;;8.79;87.01
73600;BME280;61877;48.246;9.220;2022-09-09T01:05:33;93930.31;;;8.84;87.03
73600;BME280;61877;48.246;9.220;2022-09-09T01:08:02;93925.38;;;8.74;86.61
73600;BME280;61877;48.246;9.220;2022-09-09T01:10:36;93923.38;;;8.71;87.17
73600;BME280;61877;48.246;9.220;2022-09-09T01:13:13;93921.56;;;8.63;87.51
73600;BME280;61877;48.246;9.220;2022-09-09T01:15:41;93921.63;;;8.55;87.62
73600;BME280;61877;48.246;9.220;2022-09-09T01:18:08;93926.41;;;8.49;87.72
73600;BME280;61877;48.246;9.220;2022-09-09T01:20:40;93925.72;;;8.52;87.76
73600;BME280;61877;48.246;9.220;2022-09-09T01:23:41;93923.25;;;8.47;87.90
73600;BME280;61877;48.246;9.220;2022-09-09T01:26:22;93915.03;;;8.52;88.04
73600;BME280;61877;48.246;9.220;2022-09-09T01:28:50;93911.94;;;8.50;87.05
73600;BME280;61877;48.246;9.220;2022-09-09T01:31:18;93910.34;;;8.49;87.92
73600;BME280;61877;48.246;9.220;2022-09-09T01:33:45;93909.59;;;8.49;87.46
73600;BME280;61877;48.246;9.220;2022-09-09T01:36:12;93914.81;;;8.45;87.94
73600;BME280;61877;48.246;9.220;2022-09-09T01:38:40;93915.91;;;8.44;88.57
73600;BME280;61877;48.246;9.220;2022-09-09T01:41:05;93913.22;;;8.44;88.07
73600;BME280;61877;48.246;9.220;2022-09-09T01:43:32;93907.03;;;8.52;88.30
73600;BME280;61877;48.246;9.220;2022-09-09T01:46:00;93903.00;;;8.46;87.76
73600;BME280;61877;48.246;9.220;2022-09-09T01:48:27;93900.13;;;8.51;87.92
73600;BME280;61877;48.246;9.220;2022-09-09T01:50:52;93901.13;;;8.47;88.03
73600;BME280;61877;48.246;9.220;2022-09-09T01:53:19;93908.47;;;8.50;87.89
73600;BME280;61877;48.246;9.220;2022-09-09T01:55:52;93914.59;;;8.50;87.70
73600;BME280;61877;48.246;9.220;2022-09-09T01:58:34;93907.47;;;8.54;88.30
73600;BME280;61877;48.246;9.220;2022-09-09T02:01:09;93905.28;;;8.56;87.47
73600;BME280;61877;48.246;9.220;2022-09-09T02:03:40;93914.41;;;8.55;87.33
73600;BME280;61877;48.246;9.220;2022-09-09T02:06:14;93915.56;;;8.66;87.42
73600;BME280;61877;48.246;9.220;2022-09-09T02:08:48;93909.53;;;8.69;87.36
73600;BME280;61877;48.246;9.220;2022-09-09T02:11:15;93911.88;;;8.71;87.48
73600;BME280;61877;48.246;9.220;2022-09-09T02:13:44;93907.13;;;8.76;87.46
73600;BME280;61877;48.246;9.220;2022-09-09T02:16:13;93906.47;;;8.79;87.10
73600;BME280;61877;48.246;9.220;2022-09-09T02:18:46;93910.47;;;8.85;87.53
73600;BME280;61877;48.246;9.220;2022-09-09T02:21:13;93914.78;;;8.98;86.97
73600;BME280;61877;48.246;9.220;2022-09-09T02:23:41;93912.66;;;9.04;87.17
73600;BME280;61877;48.246;9.220;2022-09-09T02:26:08;93900.75;;;9.13;86.59
73600;BME280;61877;48.246;9.220;2022-09-09T02:28:36;93903.31;;;9.22;86.96
73600;BME280;61877;48.246;9.220;2022-09-09T02:31:05;93902.56;;;9.22;86.80
73600;BME280;61877;48.246;9.220;2022-09-09T02:33:37;93908.56;;;9.31;86.16
73600;BME280;61877;48.246;9.220;2022-09-09T02:36:05;93901.00;;;9.33;86.08
73600;BME280;61877;48.246;9.220;2022-09-09T02:38:37;93904.66;;;9.40;86.84
73600;BME280;61877;48.246;9.220;2022-09-09T02:41:06;93896.41;;;9.45;86.51
73600;BME280;61877;48.246;9.220;2022-09-09T02:43:32;93899.22;;;9.49;86.80
73600;BME280;61877;48.246;9.220;2022-09-09T02:46:11;93895.88;;;9.52;86.76
73600;BME280;61877;48.246;9.220;2022-09-09T02:48:51;93896.53;;;9.61;86.11
73600;BME280;61877;48.246;9.220;2022-09-09T02:51:24;93902.81;;;9.65;86.16
73600;BME280;61877;48.246;9.220;2022-09-09T02:54:00;93907.03;;;9.78;85.90
73600;BME280;61877;48.246;9.220;2022-09-09T02:56:30;93910.34;;;9.87;85.97
73600;BME280;61877;48.246;9.220;2022-09-09T02:58:58;93911.03;;;9.84;86.77
73600;BME280;61877;48.246;9.220;2022-09-09T03:01:25;93901.91;;;9.85;86.54
73600;BME280;61877;48.246;9.220;2022-09-09T03:03:50;93911.25;;;9.91;87.50
73600;BME280;61877;48.246;9.220;2022-09-09T03:06:16;93908.25;;;9.92;88.47
73600;BME280;61877;48.246;9.220;2022-09-09T03:08:41;93909.91;;;9.97;88.46
73600;BME280;61877;48.246;9.220;2022-09-09T03:11:12;93915.25;;;9.97;88.96
73600;BME280;61877;48.246;9.220;2022-09-09T03:13:37;93910.81;;;10.01;91.16
73600;BME280;61877;48.246;9.220;2022-09-09T03:16:03;93911.69;;;10.05;91.00
73600;BME280;61877;48.246;9.220;2022-09-09T03:18:30;93907.25;;;10.09;90.55
73600;BME280;61877;48.246;9.220;2022-09-09T03:20:56;93915.72;;;10.11;90.26
73600;BME280;61877;48.246;9.220;2022-09-09T03:23:21;93916.19;;;10.13;89.44
73600;BME280;61877;48.246;9.220;2022-09-09T03:25:47;93913.34;;;10.21;89.36
73600;BME280;61877;48.246;9.220;2022-09-09T03:28:13;93909.13;;;10.20;89.92
73600;BME280;61877;48.246;9.220;2022-09-09T03:30:38;93917.94;;;10.21;89.60
73600;BME280;61877;48.246;9.220;2022-09-09T03:33:04;93911.47;;;10.22;89.69
73600;BME280;61877;48.246;9.220;2022-09-09T03:35:31;93911.47;;;10.22;90.40
73600;BME280;61877;48.246;9.220;2022-09-09T03:37:56;93904.88;;;10.19;90.84
73600;BME280;61877;48.246;9.220;2022-09-09T03:40:22;93891.72;;;10.14;90.01
73600;BME280;61877;48.246;9.220;2022-09-09T03:42:47;93885.81;;;10.09;90.73
73600;BME280;61877;48.246;9.220;2022-09-09T03:45:12;93887.66;;;10.20;90.30
73600;BME280;61877;48.246;9.220;2022-09-09T03:47:38;93901.16;;;10.36;88.77
73600;BME280;61877;48.246;9.220;2022-09-09T03:50:04;93902.03;;;10.40;87.54
73600;BME280;61877;48.246;9.220;2022-09-09T03:52:34;93909.97;;;10.36;87.35
73600;BME280;61877;48.246;9.220;2022-09-09T03:54:59;93908.84;;;10.37;90.59
73600;BME280;61877;48.246;9.220;2022-09-09T03:57:25;93919.13;;;10.35;91.26
73600;BME280;61877;48.246;9.220;2022-09-09T03:59:50;93922.41;;;10.29;91.40
73600;BME280;61877;48.246;9.220;2022-09-09T04:02:16;93921.50;;;10.25;91.07
73600;BME280;61877;48.246;9.220;2022-09-09T04:04:41;93918.16;;;10.28;91.21
73600;BME280;61877;48.246;9.220;2022-09-09T04:07:07;93920.84;;;10.28;90.97
73600;BME280;61877;48.246;9.220;2022-09-09T04:09:34;93920.84;;;10.28;90.53
73600;BME280;61877;48.246;9.220;2022-09-09T04:11:59;93909.22;;;10.24;91.49
73600;BME280;61877;48.246;9.220;2022-09-09T04:14:25;93908.31;;;10.20;90.98
73600;BME280;61877;48.246;9.220;2022-09-09T04:16:50;93906.75;;;10.31;90.01
73600;BME280;61877;48.246;9.220;2022-09-09T04:19:15;93909.38;;;10.43;90.19
73600;BME280;61877;48.246;9.220;2022-09-09T04:21:41;93910.31;;;10.35;89.79
73600;BME280;61877;48.246;9.220;2022-09-09T04:24:07;93906.75;;;10.31;90.36
73600;BME280;61877;48.246;9.220;2022-09-09T04:26:35;93910.13;;;10.28;90.56
73600;BME280;61877;48.246;9.220;2022-09-09T04:29:01;93914.13;;;10.22;90.75
73600;BME280;61877;48.246;9.220;2022-09-09T04:31:26;93917.47;;;10.31;91.36
73600;BME280;61877;48.246;9.220;2022-09-09T04:33:52;93914.22;;;10.37;92.49
73600;BME280;61877;48.246;9.220;2022-09-09T04:36:18;93913.78;;;10.35;91.43
73600;BME280;61877;48.246;9.220;2022-09-09T04:38:44;93913.53;;;10.40;92.15
73600;BME280;61877;48.246;9.220;2022-09-09T04:41:09;93910.50;;;10.42;91.40
73600;BME280;61877;48.246;9.220;2022-09-09T04:43:36;93910.72;;;10.49;91.29
73600;BME280;61877;48.246;9.220;2022-09-09T04:46:02;93895.59;;;10.57;91.34
73600;BME280;61877;48.246;9.220;2022-09-09T04:48:28;93901.38;;;10.71;89.88
73600;BME280;61877;48.246;9.220;2022-09-09T04:50:57;93904.56;;;10.76;88.57
73600;BME280;61877;48.246;9.220;2022-09-09T04:53:24;93898.69;;;10.71;90.64
73600;BME280;61877;48.246;9.220;2022-09-09T04:55:49;93907.72;;;10.66;91.52
73600;BME280;61877;48.246;9.220;2022-09-09T04:58:15;93911.09;;;10.63;92.23
73600;BME280;61877;48.246;9.220;2022-09-09T05:00:42;93910.41;;;10.66;92.02
73600;BME280;61877;48.246;9.220;2022-09-09T05:03:08;93913.44;;;10.65;91.88
73600;BME280;61877;48.246;9.220;2022-09-09T05:05:33;93908.06;;;10.65;91.31
73600;BME280;61877;48.246;9.220;2022-09-09T05:08:01;93906.53;;;10.64;91.04
73600;BME280;61877;48.246;9.220;2022-09-09T05:10:26;93901.16;;;10.64;91.04
73600;BME280;61877;48.246;9.220;2022-09-09T05:12:52;93895.00;;;10.63;91.68
73600;BME280;61877;48.246;9.220;2022-09-09T05:15:18;93889.41;;;10.68;91.65
73600;BME280;61877;48.246;9.220;2022-09-09T05:17:45;93899.78;;;10.70;90.81
73600;BME280;61877;48.246;9.220;2022-09-09T05:20:10;93908.88;;;10.65;90.13
73600;BME280;61877;48.246;9.220;2022-09-09T05:22:35;93905.25;;;10.73;90.65
73600;BME280;61877;48.246;9.220;2022-09-09T05:25:01;93911.75;;;10.72;90.69
73600;BME280;61877;48.246;9.220;2022-09-09T05:27:29;93911.59;;;10.81;91.35
73600;BME280;61877;48.246;9.220;2022-09-09T05:29:55;93919.31;;;10.82;91.08
73600;BME280;61877;48.246;9.220;2022-09-09T05:32:20;93936.28;;;10.86;91.71
73600;BME280;61877;48.246;9.220;2022-09-09T05:34:47;93935.28;;;10.91;91.39
73600;BME280;61877;48.246;9.220;2022-09-09T05:37:12;93933.19;;;11.00;90.53
73600;BME280;61877;48.246;9.220;2022-09-09T05:39:38;93926.78;;;11.04;90.94
73600;BME280;61877;48.246;9.220;2022-09-09T05:42:04;93931.50;;;11.23;90.40
73600;BME280;61877;48.246;9.220;2022-09-09T05:44:30;93936.97;;;11.26;90.01
73600;BME280;61877;48.246;9.220;2022-09-09T05:46:56;93934.56;;;11.52;88.49
73600;BME280;61877;48.246;9.220;2022-09-09T05:49:21;93925.34;;;11.65;87.61
73600;BME280;61877;48.246;9.220;2022-09-09T05:51:48;93922.88;;;11.60;88.10
73600;BME280;61877;48.246;9.220;2022-09-09T05:54:14;93926.34;;;11.61;88.73
73600;BME280;61877;48.246;9.220;2022-09-09T05:56:39;93923.16;;;11.71;89.47
73600;BME280;61877;48.246;9.220;2022-09-09T05:59:05;93928.44;;;11.83;89.57
73600;BME280;61877;48.246;9.220;2022-09-09T06:01:32;93931.66;;;11.89;89.51
73600;BME280;61877;48.246;9.220;2022-09-09T06:03:58;93928.59;;;12.06;89.19
73600;BME280;61877;48.246;9.220;2022-09-09T06:06:26;93926.13;;;12.16;88.23
73600;BME280;61877;48.246;9.220;2022-09-09T06:08:54;93931.16;;;12.18;87.67
73600;BME280;61877;48.246;9.220;2022-09-09T06:11:22;93929.34;;;12.22;87.94
73600;BME280;61877;48.246;9.220;2022-09-09T06:13:48;93929.25;;;12.18;87.87
73600;BME280;61877;48.246;9.220;2022-09-09T06:16:15;93928.56;;;12.21;87.79
73600;BME280;61877;48.246;9.220;2022-09-09T06:18:41;93930.09;;;12.22;88.28
73600;BME280;61877;48.246;9.220;2022-09-09T06:21:11;93923.09;;;12.18;88.53
73600;BME280;61877;48.246;9.220;2022-09-09T06:23:40;93923.69;;;12.27;89.20
73600;BME280;61877;48.246;9.220;2022-09-09T06:26:09;93925.28;;;12.47;88.85
73600;BME280;61877;48.246;9.220;2022-09-09T06:28:36;93929.25;;;12.72;88.06
73600;BME280;61877;48.246;9.220;2022-09-09T06:31:04;93928.91;;;12.92;87.14
73600;BME280;61877;48.246;9.220;2022-09-09T06:33:31;93928.91;;;13.12;86.22
73600;BME280;61877;48.246;9.220;2022-09-09T06:35:57;93924.41;;;13.38;85.85
73600;BME280;61877;48.246;9.220;2022-09-09T06:38:22;93924.19;;;13.69;84.34
73600;BME280;61877;48.246;9.220;2022-09-09T06:40:51;93931.53;;;13.95;84.35
73600;BME280;61877;48.246;9.220;2022-09-09T06:43:18;93935.38;;;13.94;83.71
73600;BME280;61877;48.246;9.220;2022-09-09T06:45:52;93931.59;;;13.98;83.94
73600;BME280;61877;48.246;9.220;2022-09-09T06:48:18;93934.69;;;14.00;85.00
73600;BME280;61877;48.246;9.220;2022-09-09T06:50:43;93931.97;;;14.23;83.67
73600;BME280;61877;48.246;9.220;2022-09-09T06:53:11;93937.56;;;14.34;84.72
73600;BME280;61877;48.246;9.220;2022-09-09T06:55:39;93927.00;;;14.51;83.49
73600;BME280;61877;48.246;9.220;2022-09-09T06:58:08;93927.56;;;14.64;84.20
73600;BME280;61877;48.246;9.220;2022-09-09T07:00:35;93926.50;;;14.72;82.82
73600;BME280;61877;48.246;9.220;2022-09-09T07:03:00;93928.97;;;14.84;83.29
73600;BME280;61877;48.246;9.220;2022-09-09T07:05:25;93924.09;;;14.96;83.34
73600;BME280;61877;48.246;9.220;2022-09-09T07:07:51;93928.75;;;14.99;82.29
73600;BME280;61877;48.246;9.220;2022-09-09T07:10:17;93927.69;;;15.04;82.17
73600;BME280;61877;48.246;9.220;2022-09-09T07:12:42;93930.19;;;15.23;81.98
73600;BME280;61877;48.246;9.220;2022-09-09T07:15:08;93932.13;;;15.22;81.10
73600;BME280;61877;48.246;9.220;2022-09-09T07:17:35;93944.13;;;15.58;81.03
73600;BME280;61877;48.246;9.220;2022-09-09T07:20:01;93943.16;;;15.77;79.97
73600;BME280;61877;48.246;9.220;2022-09-09T07:22:27;93949.50;;;15.95;78.94
73600;BME280;61877;48.246;9.220;2022-09-09T07:24:53;93947.16;;;15.93;78.92
73600;BME280;61877;48.246;9.220;2022-09-09T07:27:18;93945.72;;;16.06;78.25
73600;BME280;61877;48.246;9.220;2022-09-09T07:29:44;93945.00;;;16.13;79.37
73600;BME280;61877;48.246;9.220;2022-09-09T07:32:09;93955.00;;;16.56;77.23
73600;BME280;61877;48.246;9.220;2022-09-09T07:34:36;93946.69;;;16.31;76.99
73600;BME280;61877;48.246;9.220;2022-09-09T07:37:02;93951.13;;;16.06;75.92
73600;BME280;61877;48.246;9.220;2022-09-09T07:39:27;93951.94;;;16.10;77.01
73600;BME280;61877;48.246;9.220;2022-09-09T07:41:53;93947.47;;;16.35;78.76
73600;BME280;61877;48.246;9.220;2022-09-09T07:44:20;93954.19;;;16.52;76.41
73600;BME280;61877;48.246;9.220;2022-09-09T07:46:46;93953.88;;;16.60;76.01
73600;BME280;61877;48.246;9.220;2022-09-09T07:49:12;93955.22;;;16.91;75.25
73600;BME280;61877;48.246;9.220;2022-09-09T07:51:40;93965.38;;;17.12;73.64
73600;BME280;61877;48.246;9.220;2022-09-09T07:54:07;93960.72;;;17.09;73.76
73600;BME280;61877;48.246;9.220;2022-09-09T07:56:33;93953.00;;;17.18;73.95
73600;BME280;61877;48.246;9.220;2022-09-09T07:58:59;93950.31;;;17.25;73.88
73600;BME280;61877;48.246;9.220;2022-09-09T08:01:27;93962.06;;;17.53;73.00
73600;BME280;61877;48.246;9.220;2022-09-09T08:03:55;93960.94;;;17.65;71.98
73600;BME280;61877;48.246;9.220;2022-09-09T08:06:20;93967.91;;;17.69;72.23
73600;BME280;61877;48.246;9.220;2022-09-09T08:08:50;93965.19;;;17.73;72.12
73600;BME280;61877;48.246;9.220;2022-09-09T08:11:16;93980.69;;;17.62;69.68
73600;BME280;61877;48.246;9.220;2022-09-09T08:13:42;93983.38;;;17.55;71.13
73600;BME280;61877;48.246;9.220;2022-09-09T08:16:11;93981.72;;;17.36;70.82
73600;BME280;61877;48.246;9.220;2022-09-09T08:18:38;93979.13;;;17.54;70.52
73600;BME280;61877;48.246;9.220;2022-09-09T08:21:08;93980.78;;;17.97;70.68
73600;BME280;61877;48.246;9.220;2022-09-09T08:23:34;93973.00;;;18.06;67.80
73600;BME280;61877;48.246;9.220;2022-09-09T08:26:05;93981.22;;;18.48;68.74
73600;BME280;61877;48.246;9.220;2022-09-09T08:28:31;93990.88;;;18.39;66.93
73600;BME280;61877;48.246;9.220;2022-09-09T08:31:07;93988.50;;;17.95;69.61
73600;BME280;61877;48.246;9.220;2022-09-09T08:33:32;93985.78;;;17.74;70.09
73600;BME280;61877;48.246;9.220;2022-09-09T08:35:58;93994.22;;;17.51;69.87
73600;BME280;61877;48.246;9.220;2022-09-09T08:38:23;93994.84;;;17.24;72.03
73600;BME280;61877;48.246;9.220;2022-09-09T08:40:49;93991.59;;;16.90;72.07
73600;BME280;61877;48.246;9.220;2022-09-09T08:43:21;93996.25;;;16.93;72.86
73600;BME280;61877;48.246;9.220;2022-09-09T08:45:51;93988.63;;;17.20;72.56
73600;BME280;61877;48.246;9.220;2022-09-09T08:48:34;93980.66;;;17.51;71.81
73600;BME280;61877;48.246;9.220;2022-09-09T08:51:04;93979.91;;;17.51;72.30
73600;BME280;61877;48.246;9.220;2022-09-09T08:53:37;93972.88;;;17.46;71.59
73600;BME280;61877;48.246;9.220;2022-09-09T08:56:10;93971.41;;;17.70;69.35
73600;BME280;61877;48.246;9.220;2022-09-09T08:58:44;93976.91;;;18.05;68.40
73600;BME280;61877;48.246;9.220;2022-09-09T09:01:21;93971.09;;;18.17;68.49
73600;BME280;61877;48.246;9.220;2022-09-09T09:04:05;93978.44;;;18.87;65.58
73600;BME280;61877;48.246;9.220;2022-09-09T09:06:49;93970.69;;;18.75;66.46
73600;BME280;61877;48.246;9.220;2022-09-09T09:09:21;93976.41;;;19.12;68.39
73600;BME280;61877;48.246;9.220;2022-09-09T09:11:52;93974.81;;;19.28;64.70
73600;BME280;61877;48.246;9.220;2022-09-09T09:14:21;93981.22;;;19.80;61.41
73600;BME280;61877;48.246;9.220;2022-09-09T09:16:51;93973.13;;;19.70;59.69
73600;BME280;61877;48.246;9.220;2022-09-09T09:19:18;93966.44;;;19.81;59.42
73600;BME280;61877;48.246;9.220;2022-09-09T09:21:44;93968.72;;;20.48;61.30
73600;BME280;61877;48.246;9.220;2022-09-09T09:24:16;93958.63;;;20.45;57.69
73600;BME280;61877;48.246;9.220;2022-09-09T09:26:43;93963.16;;;20.11;59.40
73600;BME280;61877;48.246;9.220;2022-09-09T09:29:11;93963.13;;;20.18;61.41
73600;BME280;61877;48.246;9.220;2022-09-09T09:31:38;93962.53;;;19.82;59.89
73600;BME280;61877;48.246;9.220;2022-09-09T09:34:04;93959.16;;;19.61;60.02
73600;BME280;61877;48.246;9.220;2022-09-09T09:36:34;93958.88;;;19.41;61.45
73600;BME280;61877;48.246;9.220;2022-09-09T09:39:02;93953.41;;;19.45;60.00
73600;BME280;61877;48.246;9.220;2022-09-09T09:41:33;93951.41;;;19.56;59.82
73600;BME280;61877;48.246;9.220;2022-09-09T09:43:59;93948.88;;;19.93;59.10
73600;BME280;61877;48.246;9.220;2022-09-09T09:46:25;93946.66;;;20.32;61.72
73600;BME280;61877;48.246;9.220;2022-09-09T09:48:58;93946.84;;;20.55;55.30
73600;BME280;61877;48.246;9.220;2022-09-09T09:51:24;93956.53;;;20.60;55.53
73600;BME280;61877;48.246;9.220;2022-09-09T09:53:54;93958.59;;;20.48;51.00
73600;BME280;61877;48.246;9.220;2022-09-09T09:56:28;93961.66;;;20.03;51.68
73600;BME280;61877;48.246;9.220;2022-09-09T09:58:54;93966.31;;;19.12;50.79
73600;BME280;61877;48.246;9.220;2022-09-09T10:01:22;93960.09;;;19.19;53.38
73600;BME280;61877;48.246;9.220;2022-09-09T10:03:50;93960.56;;;18.93;51.54
73600;BME280;61877;48.246;9.220;2022-09-09T10:06:29;93965.13;;;19.31;51.36
73600;BME280;61877;48.246;9.220;2022-09-09T10:08:55;93963.59;;;19.19;50.94
73600;BME280;61877;48.246;9.220;2022-09-09T10:11:28;93970.69;;;18.82;52.49
73600;BME280;61877;48.246;9.220;2022-09-09T10:14:03;93965.63;;;18.80;52.89
73600;BME280;61877;48.246;9.220;2022-09-09T10:16:45;93968.78;;;18.68;54.94
73600;BME280;61877;48.246;9.220;2022-09-09T10:19:16;93958.56;;;19.11;54.82
73600;BME280;61877;48.246;9.220;2022-09-09T10:21:59;93961.31;;;19.04;52.10
73600;BME280;61877;48.246;9.220;2022-09-09T10:27:32;93960.25;;;21.20;46.06
73600;BME280;61877;48.246;9.220;2022-09-09T10:30:09;93960.44;;;21.03;50.02
73600;BME280;61877;48.246;9.220;2022-09-09T10:32:40;93955.25;;;20.71;47.00
73600;BME280;61877;48.246;9.220;2022-09-09T10:35:11;93952.19;;;20.69;45.88
73600;BME280;61877;48.246;9.220;2022-09-09T10:37:48;93953.00;;;21.70;46.35
73600;BME280;61877;48.246;9.220;2022-09-09T10:40:26;93941.88;;;21.24;46.30
73600;BME280;61877;48.246;9.220;2022-09-09T10:42:58;93943.88;;;20.39;47.26
73600;BME280;61877;48.246;9.220;2022-09-09T10:45:29;93930.97;;;21.24;46.24
73600;BME280;61877;48.246;9.220;2022-09-09T10:48:30;93937.25;;;21.51;45.02
73600;BME280;61877;48.246;9.220;2022-09-09T10:51:01;93931.06;;;21.47;44.88
73600;BME280;61877;48.246;9.220;2022-09-09T10:53:37;93940.16;;;20.63;42.69
73600;BME280;61877;48.246;9.220;2022-09-09T10:56:11;93940.25;;;20.93;43.88
73600;BME280;61877;48.246;9.220;2022-09-09T10:58:41;93929.56;;;21.09;44.31
73600;BME280;61877;48.246;9.220;2022-09-09T11:01:13;93936.03;;;21.56;44.44
73600;BME280;61877;48.246;9.220;2022-09-09T11:03:41;93940.03;;;22.08;42.83
73600;BME280;61877;48.246;9.220;2022-09-09T11:06:14;93933.53;;;21.99;42.87
73600;BME280;61877;48.246;9.220;2022-09-09T11:08:43;93923.25;;;21.80;40.83
73600;BME280;61877;48.246;9.220;2022-09-09T11:11:13;93927.34;;;23.53;43.30
73600;BME280;61877;48.246;9.220;2022-09-09T11:13:44;93931.63;;;24.41;40.56
73600;BME280;61877;48.246;9.220;2022-09-09T11:16:20;93934.88;;;24.20;39.14
73600;BME280;61877;48.246;9.220;2022-09-09T11:18:47;93931.78;;;25.43;37.47
73600;BME280;61877;48.246;9.220;2022-09-09T11:21:16;93918.97;;;24.47;34.84
73600;BME280;61877;48.246;9.220;2022-09-09T11:23:49;93922.78;;;23.03;39.66
73600;BME280;61877;48.246;9.220;2022-09-09T11:26:21;93916.88;;;22.85;39.79
73600;BME280;61877;48.246;9.220;2022-09-09T11:29:05;93921.88;;;23.10;38.78
73600;BME280;61877;48.246;9.220;2022-09-09T11:31:44;93926.91;;;22.92;40.64
73600;BME280;61877;48.246;9.220;2022-09-09T11:34:26;93924.81;;;22.30;40.66
73600;BME280;61877;48.246;9.220;2022-09-09T11:37:11;93928.34;;;21.77;39.73
73600;BME280;61877;48.246;9.220;2022-09-09T11:42:42;93920.81;;;21.25;43.16
73600;BME280;61877;48.246;9.220;2022-09-09T11:45:10;93925.16;;;20.85;43.03
73600;BME280;61877;48.246;9.220;2022-09-09T11:47:36;93919.88;;;21.38;40.64
73600;BME280;61877;48.246;9.220;2022-09-09T11:50:10;93923.34;;;20.72;42.62
73600;BME280;61877;48.246;9.220;2022-09-09T11:52:37;93924.66;;;20.97;41.50
73600;BME280;61877;48.246;9.220;2022-09-09T11:55:08;93923.47;;;20.98;43.86
73600;BME280;61877;48.246;9.220;2022-09-09T11:57:36;93922.22;;;20.66;42.21
73600;BME280;61877;48.246;9.220;2022-09-09T12:00:04;93921.19;;;20.90;42.92
73600;BME280;61877;48.246;9.220;2022-09-09T12:02:30;93911.22;;;21.13;40.39
73600;BME280;61877;48.246;9.220;2022-09-09T12:04:58;93912.53;;;21.92;41.48
73600;BME280;61877;48.246;9.220;2022-09-09T12:07:34;93910.84;;;21.11;41.61
73600;BME280;61877;48.246;9.220;2022-09-09T12:10:04;93904.47;;;22.35;39.92
73600;BME280;61877;48.246;9.220;2022-09-09T12:12:32;93910.56;;;22.88;38.35
73600;BME280;61877;48.246;9.220;2022-09-09T12:15:02;93897.56;;;22.50;36.15
73600;BME280;61877;48.246;9.220;2022-09-09T12:17:31;93895.09;;;23.60;35.09
73600;BME280;61877;48.246;9.220;2022-09-09T12:20:06;93896.41;;;24.40;35.86
73600;BME280;61877;48.246;9.220;2022-09-09T12:22:39;93886.50;;;23.58;36.27
73600;BME280;61877;48.246;9.220;2022-09-09T12:25:20;93898.66;;;23.57;36.96
73600;BME280;61877;48.246;9.220;2022-09-09T12:27:59;93893.25;;;23.89;34.17
73600;BME280;61877;48.246;9.220;2022-09-09T12:30:29;93890.19;;;23.32;33.45
73600;BME280;61877;48.246;9.220;2022-09-09T12:33:02;93883.00;;;22.99;33.20
73600;BME280;61877;48.246;9.220;2022-09-09T12:35:32;93886.75;;;23.28;34.48
73600;BME280;61877;48.246;9.220;2022-09-09T12:37:59;93880.31;;;23.90;33.72
73600;BME280;61877;48.246;9.220;2022-09-09T12:40:27;93889.06;;;23.85;33.90
73600;BME280;61877;48.246;9.220;2022-09-09T12:42:53;93895.66;;;22.93;34.90
73600;BME280;61877;48.246;9.220;2022-09-09T12:45:20;93895.41;;;22.15;36.45
73600;BME280;61877;48.246;9.220;2022-09-09T12:47:48;93883.97;;;22.89;34.58
73600;BME280;61877;48.246;9.220;2022-09-09T12:50:19;93890.28;;;23.29;33.71
73600;BME280;61877;48.246;9.220;2022-09-09T12:52:47;93886.88;;;22.59;33.90
73600;BME280;61877;48.246;9.220;2022-09-09T12:55:17;93887.69;;;23.18;33.52
73600;BME280;61877;48.246;9.220;2022-09-09T12:57:43;93882.59;;;23.59;32.62
73600;BME280;61877;48.246;9.220;2022-09-09T13:00:14;93878.56;;;23.99;32.27
73600;BME280;61877;48.246;9.220;2022-09-09T13:02:49;93885.44;;;23.72;33.57
73600;BME280;61877;48.246;9.220;2022-09-09T13:05:20;93888.34;;;22.40;38.01
73600;BME280;61877;48.246;9.220;2022-09-09T13:07:46;93898.81;;;21.96;40.91
73600;BME280;61877;48.246;9.220;2022-09-09T13:10:12;93889.13;;;22.18;41.52
73600;BME280;61877;48.246;9.220;2022-09-09T13:12:38;93889.09;;;23.30;39.92
73600;BME280;61877;48.246;9.220;2022-09-09T13:15:12;93890.56;;;23.34;39.03
73600;BME280;61877;48.246;9.220;2022-09-09T13:17:53;93892.84;;;23.16;39.71
73600;BME280;61877;48.246;9.220;2022-09-09T13:20:25;93882.13;;;22.63;40.47